Aktualne dane pomiarowe

Uwaga, wersja testowa! Automatyczne pobieranie danych za pomocą narzędzi lub skryptów to umożliwiających jest zabronione.

Dane meteo z obszaru Polski uzyskane na podstawie depesz SYNOP pobieranych co godzinę z NWS. Najedź myszką na symbol przedstawiony w tabeli, aby uzyskać informacje co do jego znaczenia. Prosimy pamiętać, że to testowa wersja strony, która jeszcze nie jest ukończona. Stworzono również jest krótki FAQ dotyczący korzystania z tej podstrony Anomalie temperatury w chwili obecnej odniesione są do okresu referencyjnego 1951-2016. Okres ten będzie później zmieniony na 1981-2010. Kliknij ikonę aby pobrać plik CSV. Kliknij ikonę aby wygenerować mapę synoptyczną dla danego terminu.

Wybierz Datę:    

        

Częstochowa (12550)

Dane terminowe dla wybranej stacji. Kliknij datę, aby otrzymać dane z tego terminu dla wszystkich stacji.

TemperaturaZachmurzenieWiatrCiśnienieOpadyPogoda
 Data t td wb tx tn tg rh  Nt Nl Cl Cm Ch ws wd g1 g2 wx mslp ppp ch 24h 12h t ww ww w1 w2  
2019-07-22 23:00:00 19.9 11.4 14.7--- 5835.0--3wx--31021.2 986.6 0.0---wx-----
2019-07-22 22:00:00 19.8 11.6 14.7--- 5930.0--1wx--11021.4 986.8 0.2---wx-----
2019-07-22 21:00:00 21.0 10.2 14.6--- 5035.0--2wx--21021.0 986.6 0.4---------
2019-07-22 20:00:00 21.2 10.1 14.6--- 4912.0--2wx--21021.0 986.6 0.5---------
2019-07-22 19:00:00 22.2 9.7 14.9--- 4545.0--3wx--31020.9 986.6 0.2---------
2019-07-22 18:00:00 23.2 9.2 15.1 26.4 18.9- 4145.0--3wx--31020.4 986.2 -0.4- 0.012------
2019-07-22 17:00:00 24.5 8.8 15.5--- 3740.0--4wx--41020.1 986.1 -0.7---------
2019-07-22 16:00:00 25.4 8.8 15.8--- 3535.0--5wx--51020.3 986.4 -0.7---------
2019-07-22 15:00:00 25.7 9.5 16.2--- 3635.0--4wx---1020.5 986.6 -0.9---------
2019-07-22 14:00:00 25.6 9.4 16.2--- 3640.0--4wx--41020.7 986.8 -1.2---------
2019-07-22 13:00:00 26.0 11.0 17.0--- 3928.0--2wx--21021.0 987.1 -1.0---------
2019-07-22 12:00:00 25.1 10.9 16.6--- 4130.0--2wx--21021.5 987.5 -0.6- 0.06------
2019-07-22 11:00:00 24.3 10.9 16.3--- 4345.0--2wx--21022.1 988.0 -0.2---------
2019-07-22 10:00:00 24.8 11.0 16.6--- 4230.0--3wx---1022.1 988.1 0.1---------
2019-07-22 09:00:00 24.1 11.4 16.4--- 4530.0--2wx--21022.2 988.1 0.1---------
2019-07-22 08:00:00 22.1 13.7 16.8--- 5927.0--1wx--11022.6 988.2 0.4---------
2019-07-22 07:00:00 20.6 14.7 16.7--- 6927.0--1wx--11022.5 988.0 0.3---------
2019-07-22 06:00:00 19.1 14.1 15.8 20.7 15.0 12 7326.0--2wx--21022.7 988.0 0.9 0.9 0.012----- 6.4
2019-07-22 05:00:00 16.3 14.8 15.2--- 9114.0--1wx--11022.9 987.8 0.8---------
2019-07-22 04:00:00 15.2 14.6 14.7--- 965.0--1wx--11022.9 987.7 1.0---wx-----
2019-07-22 03:00:00 15.0 14.2 14.4--- 956.0--1wx--11022.3 987.1 0.4---wx-----
2019-07-22 02:00:00 15.5 14.5 14.8--- 948.0--1wx--11022.1 987.0 0.4---wx-----
2019-07-22 01:00:00 16.3 15.3 15.6--- 947.0--1wx--11021.7 986.7 0.1---wx-----
2019-07-22 00:00:00 16.7 16.1 16.2--- 966.0--1wx--11021.7 986.7 0.6- 0.06wx-----
2019-07-21 23:00:00 17.2 16.6 16.7--- 964.2--1wx---1021.5 986.6 0.9---wx-----
2019-07-21 22:00:00 17.6 16.6 16.9--- 946.0--1wx--11021.5 986.6 1.2---wx-----
2019-07-21 21:00:00 17.9 16.8 17.1--- 937.0--1wx--11020.9 986.1 1.1---wx-----
2019-07-21 20:00:00 18.4 16.7 17.2--- 9011.0--1wx--11020.4 985.7 1.0---------
2019-07-21 19:00:00 19.3 16.7 17.5--- 8526.0--1wx--11020.0 985.4 0.5---------
2019-07-21 18:00:00 20.7 16.5 17.8 28.4 19.2- 7745.0--1wx---1019.4 985.0 0.2---------
2019-07-21 17:00:00 21.3 16.3 17.9--- 7340.0--2wx--21019.0 984.7 -0.2---------
2019-07-21 16:00:00 20.5 17.1 18.1--- 8130.0--2wx--21019.3 984.9 0.5---------
2019-07-21 15:00:00 19.3 16.5 17.3--- 8440.0--1wx-1411019.4 984.8 1.1---wx-----
2019-07-21 14:00:00 19.7 15.8 17.0--- 7840.0--1wx--11019.4 984.9 2.1---wx-----
2019-07-21 13:00:00 21.9 15.0 17.4--- 6518.0--3wx81431018.7 984.4 1.7---wx-----
2019-07-21 12:00:00 25.2 14.6 18.5--- 5230.0--4wx101141017.5 983.7 0.8- 0.36wx-----
2019-07-21 11:00:00 28.0 13.9 19.2--- 4230.0--3wx--31016.3 982.8 0.2---------
2019-07-21 10:00:00 27.5 14.5 19.3--- 4528.0--2wx--21016.2 982.7 0.8---------
2019-07-21 09:00:00 25.6 15.9 19.3--- 5530.0--2wx--21016.7 982.9 1.7---------
2019-07-21 08:00:00 23.1 15.9 18.3--- 6430.0--2wx--21016.7 982.6 1.0---------
2019-07-21 07:00:00 20.8 16.4 17.8--- 7627.0--2wx--21016.2 981.9 -0.9---------
2019-07-21 06:00:00 19.4 15.1 16.5 25.9 17.9 17 7630.0--2wx--21015.6 981.2 0.3 0.9 0.912----- 7.7
2019-07-21 05:00:00 18.3 15.4 16.3--- 8326.0--2wx--21016.2 981.6 0.5---wx-----
2019-07-21 04:00:00 18.6 15.1 16.2--- 806.0--2wx--21017.4 982.8 1.5---wx-----
2019-07-21 03:00:00 18.1 14.0 15.3--- 7718.0--2wx--21015.5 980.9 -0.4---------
2019-07-21 02:00:00 18.3 13.8 15.3--- 757.0--2wx---1015.7 981.1 -0.7---wx-----
2019-07-21 01:00:00 18.3 13.4 15.1--- 7317.0--1wx--11015.9 981.3 -0.5---------
2019-07-21 00:00:00 19.3 13.2 15.4--- 6821.0--2wx--21015.8 981.3 -0.2- 0.06------
21.1 ms

 

Print Friendly, PDF & Email